KPSP/PSP METAR and TAF weather

Enter ICAO airport designator
Station Type Date Time Source
KPSP METAR 2019/02/16 06:53 UTC NOAA

KPSP 160653Z 00000KT 10SM SCT070 BKN085 12/07 A2998 RMK AO2 SLP153 T01220067


Station Type Date Time Source
KPSP Decoded METAR 2019/02/16 06:53 UTC NOAA

PALM SPRINGS REGIONAL AIRPORT , CA, United States (KPSP) 33-50N 116-30W 135M
Feb 16, 2019 - 01:53 AM EST / 2019.02.16 0653 UTC
Wind: Calm:0
Visibility: 10 mile(s):0
Sky conditions: mostly cloudy
Temperature: 54.0 F (12.2 C)
Dew Point: 44.1 F (6.7 C)
Relative Humidity: 69%
Pressure (altimeter): 29.98 in. Hg (1015 hPa)
ob: KPSP 160653Z 00000KT 10SM SCT070 BKN085 12/07 A2998 RMK AO2 SLP153 T01220067
cycle: 7

Station Type Date Time Source
KPSP TAF 2019/02/16 06:51 UTC NOAA

TAF KPSP 160544Z 1606/1706 33009KT P6SM VCSH BKN070
FM161300 33006KT P6SM BKN100
FM161900 31015G23KT P6SM SCT100


Example: see airport list